sensor_id;sensor_type;location;lat;lon;timestamp;temperature;humidity
20035;DHT22;10178;48.034;9.800;2023-05-07T00:01:14;17.50;99.90
20035;DHT22;10178;48.034;9.800;2023-05-07T00:03:40;17.70;99.90
20035;DHT22;10178;48.034;9.800;2023-05-07T00:06:05;17.80;99.90
20035;DHT22;10178;48.034;9.800;2023-05-07T00:08:31;17.90;99.90
20035;DHT22;10178;48.034;9.800;2023-05-07T00:10:57;17.90;99.90
20035;DHT22;10178;48.034;9.800;2023-05-07T00:13:22;17.90;99.90
20035;DHT22;10178;48.034;9.800;2023-05-07T00:15:48;17.90;99.90
20035;DHT22;10178;48.034;9.800;2023-05-07T00:18:13;17.90;99.90
20035;DHT22;10178;48.034;9.800;2023-05-07T00:20:39;17.90;99.90
20035;DHT22;10178;48.034;9.800;2023-05-07T00:23:05;17.70;99.90
20035;DHT22;10178;48.034;9.800;2023-05-07T00:25:30;17.70;99.90
20035;DHT22;10178;48.034;9.800;2023-05-07T00:27:56;17.70;99.90
20035;DHT22;10178;48.034;9.800;2023-05-07T00:30:23;17.70;99.90
20035;DHT22;10178;48.034;9.800;2023-05-07T00:32:48;17.70;99.90
20035;DHT22;10178;48.034;9.800;2023-05-07T00:35:16;17.70;99.90
20035;DHT22;10178;48.034;9.800;2023-05-07T00:37:41;17.60;99.90
20035;DHT22;10178;48.034;9.800;2023-05-07T00:40:07;17.60;99.90
20035;DHT22;10178;48.034;9.800;2023-05-07T00:42:33;17.60;99.90
20035;DHT22;10178;48.034;9.800;2023-05-07T00:44:59;17.70;99.90
20035;DHT22;10178;48.034;9.800;2023-05-07T00:58:12;17.60;99.90
20035;DHT22;10178;48.034;9.800;2023-05-07T01:08:21;17.40;99.90
20035;DHT22;10178;48.034;9.800;2023-05-07T01:40:39;17.20;99.90
20035;DHT22;10178;48.034;9.800;2023-05-07T01:43:31;17.20;99.90
20035;DHT22;10178;48.034;9.800;2023-05-07T01:46:33;17.20;99.90
20035;DHT22;10178;48.034;9.800;2023-05-07T01:49:37;17.20;99.90
20035;DHT22;10178;48.034;9.800;2023-05-07T01:52:32;17.20;99.90
20035;DHT22;10178;48.034;9.800;2023-05-07T01:55:09;17.10;99.90
20035;DHT22;10178;48.034;9.800;2023-05-07T01:58:12;17.10;99.90
20035;DHT22;10178;48.034;9.800;2023-05-07T02:01:12;17.10;99.90
20035;DHT22;10178;48.034;9.800;2023-05-07T03:06:30;16.50;99.90
20035;DHT22;10178;48.034;9.800;2023-05-07T03:09:21;16.50;99.90
20035;DHT22;10178;48.034;9.800;2023-05-07T03:11:59;16.60;99.90
20035;DHT22;10178;48.034;9.800;2023-05-07T03:14:46;16.50;99.90
20035;DHT22;10178;48.034;9.800;2023-05-07T03:17:24;16.40;99.90
20035;DHT22;10178;48.034;9.800;2023-05-07T03:20:01;16.50;99.90
20035;DHT22;10178;48.034;9.800;2023-05-07T05:39:18;15.80;99.90
20035;DHT22;10178;48.034;9.800;2023-05-07T05:41:51;15.80;99.90
20035;DHT22;10178;48.034;9.800;2023-05-07T05:44:31;15.80;99.90
20035;DHT22;10178;48.034;9.800;2023-05-07T05:47:10;15.90;99.90
20035;DHT22;10178;48.034;9.800;2023-05-07T05:49:36;15.90;99.90
20035;DHT22;10178;48.034;9.800;2023-05-07T05:52:02;15.90;99.90
20035;DHT22;10178;48.034;9.800;2023-05-07T05:54:28;15.80;99.90
20035;DHT22;10178;48.034;9.800;2023-05-07T05:56:53;15.80;99.90
20035;DHT22;10178;48.034;9.800;2023-05-07T05:59:19;15.90;99.90
20035;DHT22;10178;48.034;9.800;2023-05-07T06:01:50;15.90;99.90
20035;DHT22;10178;48.034;9.800;2023-05-07T06:04:46;16.00;99.90
20035;DHT22;10178;48.034;9.800;2023-05-07T06:07:28;16.10;99.90
20035;DHT22;10178;48.034;9.800;2023-05-07T06:10:23;16.00;99.90
20035;DHT22;10178;48.034;9.800;2023-05-07T06:13:00;16.00;99.90
20035;DHT22;10178;48.034;9.800;2023-05-07T06:18:55;16.30;99.90
20035;DHT22;10178;48.034;9.800;2023-05-07T06:22:08;16.50;99.90
20035;DHT22;10178;48.034;9.800;2023-05-07T06:24:57;16.60;99.90
20035;DHT22;10178;48.034;9.800;2023-05-07T06:27:40;16.80;99.90
20035;DHT22;10178;48.034;9.800;2023-05-07T06:30:08;16.90;99.90
20035;DHT22;10178;48.034;9.800;2023-05-07T06:33:32;17.00;99.90
20035;DHT22;10178;48.034;9.800;2023-05-07T06:36:58;17.20;99.90
20035;DHT22;10178;48.034;9.800;2023-05-07T06:39:39;17.30;99.90
20035;DHT22;10178;48.034;9.800;2023-05-07T06:42:30;17.40;99.90
20035;DHT22;10178;48.034;9.800;2023-05-07T06:45:33;17.50;99.90
20035;DHT22;10178;48.034;9.800;2023-05-07T06:48:22;17.60;99.90
20035;DHT22;10178;48.034;9.800;2023-05-07T06:50:48;17.80;99.90
20035;DHT22;10178;48.034;9.800;2023-05-07T06:53:13;17.90;99.90
20035;DHT22;10178;48.034;9.800;2023-05-07T06:55:39;18.00;99.90
20035;DHT22;10178;48.034;9.800;2023-05-07T06:58:05;18.00;99.90
20035;DHT22;10178;48.034;9.800;2023-05-07T07:00:31;18.10;99.90
20035;DHT22;10178;48.034;9.800;2023-05-07T07:02:57;18.10;99.90
20035;DHT22;10178;48.034;9.800;2023-05-07T07:05:22;18.20;99.90
20035;DHT22;10178;48.034;9.800;2023-05-07T07:07:48;18.40;99.90
20035;DHT22;10178;48.034;9.800;2023-05-07T07:10:20;18.30;99.90
20035;DHT22;10178;48.034;9.800;2023-05-07T07:12:45;18.20;99.90
20035;DHT22;10178;48.034;9.800;2023-05-07T07:15:11;18.20;99.90
20035;DHT22;10178;48.034;9.800;2023-05-07T07:17:37;18.50;99.90
20035;DHT22;10178;48.034;9.800;2023-05-07T07:20:03;18.50;99.90
20035;DHT22;10178;48.034;9.800;2023-05-07T07:22:29;18.50;99.90
20035;DHT22;10178;48.034;9.800;2023-05-07T07:24:54;18.50;99.90
20035;DHT22;10178;48.034;9.800;2023-05-07T07:27:20;18.50;99.90
20035;DHT22;10178;48.034;9.800;2023-05-07T07:29:45;18.50;99.90
20035;DHT22;10178;48.034;9.800;2023-05-07T07:32:11;18.50;99.90
20035;DHT22;10178;48.034;9.800;2023-05-07T07:34:37;18.40;99.90
20035;DHT22;10178;48.034;9.800;2023-05-07T07:37:02;18.30;99.90
20035;DHT22;10178;48.034;9.800;2023-05-07T07:39:32;18.40;99.90
20035;DHT22;10178;48.034;9.800;2023-05-07T07:41:58;18.30;99.90
20035;DHT22;10178;48.034;9.800;2023-05-07T07:44:24;18.30;99.90
20035;DHT22;10178;48.034;9.800;2023-05-07T07:46:49;18.40;99.90
20035;DHT22;10178;48.034;9.800;2023-05-07T07:49:16;18.40;99.90
20035;DHT22;10178;48.034;9.800;2023-05-07T07:51:42;18.50;99.90
20035;DHT22;10178;48.034;9.800;2023-05-07T07:54:07;18.60;99.90
20035;DHT22;10178;48.034;9.800;2023-05-07T07:56:33;18.70;99.90
20035;DHT22;10178;48.034;9.800;2023-05-07T07:58:59;18.60;99.90
20035;DHT22;10178;48.034;9.800;2023-05-07T08:01:25;18.50;99.90
20035;DHT22;10178;48.034;9.800;2023-05-07T08:03:51;18.60;99.90
20035;DHT22;10178;48.034;9.800;2023-05-07T08:06:17;18.80;99.90
20035;DHT22;10178;48.034;9.800;2023-05-07T08:08:43;18.80;99.90
20035;DHT22;10178;48.034;9.800;2023-05-07T08:11:09;18.90;99.90
20035;DHT22;10178;48.034;9.800;2023-05-07T08:13:36;19.10;99.90
20035;DHT22;10178;48.034;9.800;2023-05-07T08:16:03;19.20;99.90
20035;DHT22;10178;48.034;9.800;2023-05-07T08:18:29;19.20;99.90
20035;DHT22;10178;48.034;9.800;2023-05-07T08:20:55;19.30;99.90
20035;DHT22;10178;48.034;9.800;2023-05-07T08:23:21;19.30;99.90
20035;DHT22;10178;48.034;9.800;2023-05-07T08:25:47;19.20;99.90
20035;DHT22;10178;48.034;9.800;2023-05-07T08:28:12;19.10;99.90
20035;DHT22;10178;48.034;9.800;2023-05-07T08:30:38;19.40;99.90
20035;DHT22;10178;48.034;9.800;2023-05-07T08:33:03;19.60;99.90
20035;DHT22;10178;48.034;9.800;2023-05-07T08:35:29;19.60;99.90
20035;DHT22;10178;48.034;9.800;2023-05-07T08:37:55;19.60;99.90
20035;DHT22;10178;48.034;9.800;2023-05-07T08:40:25;19.60;99.90
20035;DHT22;10178;48.034;9.800;2023-05-07T08:42:53;19.50;99.90
20035;DHT22;10178;48.034;9.800;2023-05-07T08:45:20;19.70;99.90
20035;DHT22;10178;48.034;9.800;2023-05-07T08:47:57;19.70;99.90
20035;DHT22;10178;48.034;9.800;2023-05-07T08:50:23;19.60;99.90
20035;DHT22;10178;48.034;9.800;2023-05-07T08:52:49;19.60;99.90
20035;DHT22;10178;48.034;9.800;2023-05-07T08:55:15;19.60;99.90
20035;DHT22;10178;48.034;9.800;2023-05-07T08:57:41;19.60;99.90
20035;DHT22;10178;48.034;9.800;2023-05-07T09:00:07;19.60;99.90
20035;DHT22;10178;48.034;9.800;2023-05-07T09:02:35;19.70;99.90
20035;DHT22;10178;48.034;9.800;2023-05-07T09:05:01;19.70;99.90
20035;DHT22;10178;48.034;9.800;2023-05-07T09:07:27;19.90;99.90
20035;DHT22;10178;48.034;9.800;2023-05-07T09:09:53;20.30;99.90
20035;DHT22;10178;48.034;9.800;2023-05-07T09:12:21;20.40;99.90
20035;DHT22;10178;48.034;9.800;2023-05-07T09:14:47;20.70;99.90
20035;DHT22;10178;48.034;9.800;2023-05-07T09:17:13;21.10;99.90
20035;DHT22;10178;48.034;9.800;2023-05-07T09:19:38;21.00;99.90
20035;DHT22;10178;48.034;9.800;2023-05-07T09:22:05;21.00;99.90
20035;DHT22;10178;48.034;9.800;2023-05-07T09:24:32;21.00;99.90
20035;DHT22;10178;48.034;9.800;2023-05-07T09:27:03;20.80;99.90
20035;DHT22;10178;48.034;9.800;2023-05-07T09:29:29;20.40;99.90
20035;DHT22;10178;48.034;9.800;2023-05-07T09:32:01;20.60;99.90
20035;DHT22;10178;48.034;9.800;2023-05-07T09:34:27;21.10;99.90
20035;DHT22;10178;48.034;9.800;2023-05-07T09:36:53;21.20;99.90
20035;DHT22;10178;48.034;9.800;2023-05-07T09:39:19;21.50;99.90
20035;DHT22;10178;48.034;9.800;2023-05-07T09:41:46;21.60;99.90
20035;DHT22;10178;48.034;9.800;2023-05-07T09:44:13;21.70;99.90
20035;DHT22;10178;48.034;9.800;2023-05-07T09:46:42;22.00;99.90
20035;DHT22;10178;48.034;9.800;2023-05-07T09:49:13;21.70;99.90
20035;DHT22;10178;48.034;9.800;2023-05-07T09:51:48;21.60;99.90
20035;DHT22;10178;48.034;9.800;2023-05-07T09:54:15;21.50;99.90
20035;DHT22;10178;48.034;9.800;2023-05-07T09:56:45;21.20;99.90
20035;DHT22;10178;48.034;9.800;2023-05-07T09:59:15;21.10;99.90
20035;DHT22;10178;48.034;9.800;2023-05-07T10:01:42;20.90;99.90
20035;DHT22;10178;48.034;9.800;2023-05-07T10:04:10;21.00;99.90
20035;DHT22;10178;48.034;9.800;2023-05-07T10:06:36;21.20;99.90
20035;DHT22;10178;48.034;9.800;2023-05-07T10:09:03;21.40;99.90
20035;DHT22;10178;48.034;9.800;2023-05-07T10:11:32;21.50;99.90
20035;DHT22;10178;48.034;9.800;2023-05-07T10:13:59;21.60;99.90
20035;DHT22;10178;48.034;9.800;2023-05-07T10:16:33;21.60;99.90
20035;DHT22;10178;48.034;9.800;2023-05-07T10:19:03;21.50;99.90
20035;DHT22;10178;48.034;9.800;2023-05-07T10:21:29;21.40;99.90
20035;DHT22;10178;48.034;9.800;2023-05-07T10:24:03;21.40;99.90
20035;DHT22;10178;48.034;9.800;2023-05-07T10:26:32;21.50;99.90
20035;DHT22;10178;48.034;9.800;2023-05-07T10:29:03;21.30;99.90
20035;DHT22;10178;48.034;9.800;2023-05-07T10:34:00;20.30;99.90
20035;DHT22;10178;48.034;9.800;2023-05-07T10:36:32;20.20;99.90
20035;DHT22;10178;48.034;9.800;2023-05-07T10:38:59;20.30;99.90
20035;DHT22;10178;48.034;9.800;2023-05-07T10:41:25;20.50;99.90
20035;DHT22;10178;48.034;9.800;2023-05-07T10:43:51;20.70;99.90
20035;DHT22;10178;48.034;9.800;2023-05-07T10:46:20;20.80;99.90
20035;DHT22;10178;48.034;9.800;2023-05-07T10:49:12;20.80;99.90
20035;DHT22;10178;48.034;9.800;2023-05-07T10:51:38;21.00;99.90
20035;DHT22;10178;48.034;9.800;2023-05-07T10:56:45;21.20;99.90
20035;DHT22;10178;48.034;9.800;2023-05-07T11:01:57;21.20;99.90
20035;DHT22;10178;48.034;9.800;2023-05-07T11:04:24;21.10;99.90
20035;DHT22;10178;48.034;9.800;2023-05-07T11:12:49;21.70;99.90
20035;DHT22;10178;48.034;9.800;2023-05-07T11:15:15;21.80;99.90
20035;DHT22;10178;48.034;9.800;2023-05-07T11:17:59;21.90;99.90
20035;DHT22;10178;48.034;9.800;2023-05-07T11:20:52;22.00;99.90
20035;DHT22;10178;48.034;9.800;2023-05-07T11:26:10;21.20;99.90
20035;DHT22;10178;48.034;9.800;2023-05-07T11:28:37;21.40;99.90
20035;DHT22;10178;48.034;9.800;2023-05-07T11:31:04;21.70;99.90
20035;DHT22;10178;48.034;9.800;2023-05-07T11:33:34;21.80;99.90
20035;DHT22;10178;48.034;9.800;2023-05-07T11:36:01;21.90;99.90
20035;DHT22;10178;48.034;9.800;2023-05-07T11:38:29;22.20;99.90
20035;DHT22;10178;48.034;9.800;2023-05-07T11:40:56;22.40;99.90
20035;DHT22;10178;48.034;9.800;2023-05-07T11:43:22;22.30;99.90
20035;DHT22;10178;48.034;9.800;2023-05-07T11:45:50;22.20;99.90
20035;DHT22;10178;48.034;9.800;2023-05-07T11:48:16;22.10;99.90
20035;DHT22;10178;48.034;9.800;2023-05-07T11:50:53;22.00;99.90
20035;DHT22;10178;48.034;9.800;2023-05-07T11:53:19;21.90;99.90
20035;DHT22;10178;48.034;9.800;2023-05-07T11:55:45;21.90;99.90
20035;DHT22;10178;48.034;9.800;2023-05-07T11:58:12;21.90;99.90
20035;DHT22;10178;48.034;9.800;2023-05-07T12:00:38;21.80;99.90
20035;DHT22;10178;48.034;9.800;2023-05-07T12:03:07;21.90;99.90
20035;DHT22;10178;48.034;9.800;2023-05-07T12:05:32;22.00;99.90
20035;DHT22;10178;48.034;9.800;2023-05-07T12:07:58;21.90;99.90
20035;DHT22;10178;48.034;9.800;2023-05-07T12:10:25;21.60;99.90
20035;DHT22;10178;48.034;9.800;2023-05-07T12:12:50;21.20;99.90
20035;DHT22;10178;48.034;9.800;2023-05-07T12:15:22;21.10;99.90
20035;DHT22;10178;48.034;9.800;2023-05-07T12:17:48;20.80;99.90
20035;DHT22;10178;48.034;9.800;2023-05-07T12:20:14;20.60;99.90
20035;DHT22;10178;48.034;9.800;2023-05-07T12:22:41;20.50;99.90
20035;DHT22;10178;48.034;9.800;2023-05-07T12:25:07;20.50;99.90
20035;DHT22;10178;48.034;9.800;2023-05-07T12:27:32;20.40;99.90
20035;DHT22;10178;48.034;9.800;2023-05-07T12:30:01;20.50;99.90
20035;DHT22;10178;48.034;9.800;2023-05-07T12:32:27;20.40;99.90
20035;DHT22;10178;48.034;9.800;2023-05-07T12:34:53;20.40;99.90
20035;DHT22;10178;48.034;9.800;2023-05-07T12:37:28;20.30;99.90
20035;DHT22;10178;48.034;9.800;2023-05-07T12:40:10;20.20;99.90
20035;DHT22;10178;48.034;9.800;2023-05-07T12:42:38;20.50;99.90
20035;DHT22;10178;48.034;9.800;2023-05-07T12:45:16;20.60;99.90
20035;DHT22;10178;48.034;9.800;2023-05-07T12:47:46;20.70;99.90
20035;DHT22;10178;48.034;9.800;2023-05-07T12:50:15;20.80;99.90
20035;DHT22;10178;48.034;9.800;2023-05-07T12:52:43;20.90;99.90
20035;DHT22;10178;48.034;9.800;2023-05-07T12:55:09;20.90;99.90
20035;DHT22;10178;48.034;9.800;2023-05-07T12:57:42;21.30;99.90
20035;DHT22;10178;48.034;9.800;2023-05-07T13:00:08;21.50;99.90
20035;DHT22;10178;48.034;9.800;2023-05-07T13:02:37;21.70;99.90
20035;DHT22;10178;48.034;9.800;2023-05-07T13:05:03;21.50;99.90
20035;DHT22;10178;48.034;9.800;2023-05-07T13:07:29;21.40;99.90
20035;DHT22;10178;48.034;9.800;2023-05-07T13:09:55;21.30;99.90
20035;DHT22;10178;48.034;9.800;2023-05-07T13:12:20;21.10;99.90
20035;DHT22;10178;48.034;9.800;2023-05-07T13:14:46;21.00;99.90
20035;DHT22;10178;48.034;9.800;2023-05-07T13:17:12;20.80;99.90
20035;DHT22;10178;48.034;9.800;2023-05-07T13:19:37;20.60;99.90
20035;DHT22;10178;48.034;9.800;2023-05-07T13:22:03;20.60;99.90
20035;DHT22;10178;48.034;9.800;2023-05-07T13:24:29;20.50;99.90
20035;DHT22;10178;48.034;9.800;2023-05-07T13:26:55;20.50;99.90
20035;DHT22;10178;48.034;9.800;2023-05-07T13:29:21;20.70;99.90
20035;DHT22;10178;48.034;9.800;2023-05-07T13:31:54;20.70;99.90
20035;DHT22;10178;48.034;9.800;2023-05-07T13:34:20;20.90;99.90
20035;DHT22;10178;48.034;9.800;2023-05-07T13:36:46;20.90;99.90
20035;DHT22;10178;48.034;9.800;2023-05-07T13:39:11;21.10;99.90
20035;DHT22;10178;48.034;9.800;2023-05-07T13:41:37;21.30;99.90
20035;DHT22;10178;48.034;9.800;2023-05-07T13:44:02;21.50;99.90
20035;DHT22;10178;48.034;9.800;2023-05-07T13:46:28;21.60;99.90
20035;DHT22;10178;48.034;9.800;2023-05-07T13:48:55;21.80;99.90
20035;DHT22;10178;48.034;9.800;2023-05-07T13:51:21;21.90;99.90
20035;DHT22;10178;48.034;9.800;2023-05-07T13:53:47;22.10;99.90
20035;DHT22;10178;48.034;9.800;2023-05-07T13:56:12;22.00;99.90
20035;DHT22;10178;48.034;9.800;2023-05-07T13:58:39;21.80;99.90
20035;DHT22;10178;48.034;9.800;2023-05-07T14:01:05;21.60;99.90
20035;DHT22;10178;48.034;9.800;2023-05-07T14:03:31;21.40;99.90
20035;DHT22;10178;48.034;9.800;2023-05-07T14:05:58;21.20;99.90
20035;DHT22;10178;48.034;9.800;2023-05-07T14:08:25;21.20;99.90
20035;DHT22;10178;48.034;9.800;2023-05-07T14:10:51;21.20;99.90
20035;DHT22;10178;48.034;9.800;2023-05-07T14:13:17;21.20;99.90
20035;DHT22;10178;48.034;9.800;2023-05-07T14:15:43;21.10;99.90
20035;DHT22;10178;48.034;9.800;2023-05-07T14:18:12;21.10;99.90
20035;DHT22;10178;48.034;9.800;2023-05-07T14:20:38;21.10;99.90
20035;DHT22;10178;48.034;9.800;2023-05-07T14:23:04;21.20;99.90
20035;DHT22;10178;48.034;9.800;2023-05-07T14:25:29;21.20;99.90
20035;DHT22;10178;48.034;9.800;2023-05-07T14:27:56;21.30;99.90
20035;DHT22;10178;48.034;9.800;2023-05-07T14:30:22;21.30;99.90
20035;DHT22;10178;48.034;9.800;2023-05-07T14:32:50;21.40;99.90
20035;DHT22;10178;48.034;9.800;2023-05-07T14:35:16;21.30;99.90
20035;DHT22;10178;48.034;9.800;2023-05-07T14:37:45;21.20;99.90
20035;DHT22;10178;48.034;9.800;2023-05-07T14:40:11;21.20;99.90
20035;DHT22;10178;48.034;9.800;2023-05-07T14:56:41;21.80;99.90
20035;DHT22;10178;48.034;9.800;2023-05-07T14:59:08;22.00;99.90
20035;DHT22;10178;48.034;9.800;2023-05-07T15:01:37;22.00;99.90
20035;DHT22;10178;48.034;9.800;2023-05-07T15:04:03;21.70;99.90
20035;DHT22;10178;48.034;9.800;2023-05-07T15:06:30;21.40;99.90
20035;DHT22;10178;48.034;9.800;2023-05-07T15:08:56;21.30;99.90
20035;DHT22;10178;48.034;9.800;2023-05-07T15:11:22;21.30;99.90
20035;DHT22;10178;48.034;9.800;2023-05-07T15:13:47;21.40;99.90
20035;DHT22;10178;48.034;9.800;2023-05-07T15:16:13;21.40;99.90
20035;DHT22;10178;48.034;9.800;2023-05-07T15:18:39;21.20;99.90
20035;DHT22;10178;48.034;9.800;2023-05-07T15:21:04;21.20;99.90
20035;DHT22;10178;48.034;9.800;2023-05-07T15:23:33;21.20;99.90
20035;DHT22;10178;48.034;9.800;2023-05-07T15:26:05;21.10;99.90
20035;DHT22;10178;48.034;9.800;2023-05-07T15:28:40;20.20;99.90
20035;DHT22;10178;48.034;9.800;2023-05-07T15:31:12;20.50;99.90
20035;DHT22;10178;48.034;9.800;2023-05-07T18:49:57;19.90;99.90
20035;DHT22;10178;48.034;9.800;2023-05-07T18:52:23;19.00;99.90
20035;DHT22;10178;48.034;9.800;2023-05-07T18:54:50;19.40;99.90
20035;DHT22;10178;48.034;9.800;2023-05-07T18:57:16;19.60;99.90
20035;DHT22;10178;48.034;9.800;2023-05-07T18:59:41;19.80;99.90
20035;DHT22;10178;48.034;9.800;2023-05-07T19:02:07;19.80;99.90
20035;DHT22;10178;48.034;9.800;2023-05-07T19:04:33;19.90;99.90
20035;DHT22;10178;48.034;9.800;2023-05-07T19:06:58;19.50;99.90
20035;DHT22;10178;48.034;9.800;2023-05-07T19:09:24;18.40;99.90
20035;DHT22;10178;48.034;9.800;2023-05-07T19:11:49;17.10;99.90
20035;DHT22;10178;48.034;9.800;2023-05-07T19:14:15;16.50;99.90
20035;DHT22;10178;48.034;9.800;2023-05-07T19:16:41;16.10;99.90
20035;DHT22;10178;48.034;9.800;2023-05-07T19:19:06;15.70;99.90
20035;DHT22;10178;48.034;9.800;2023-05-07T19:21:32;15.30;99.90
20035;DHT22;10178;48.034;9.800;2023-05-07T19:23:57;15.10;99.90
20035;DHT22;10178;48.034;9.800;2023-05-07T19:26:41;15.10;99.90
20035;DHT22;10178;48.034;9.800;2023-05-07T19:29:07;15.00;99.90
20035;DHT22;10178;48.034;9.800;2023-05-07T19:31:33;15.20;99.90
20035;DHT22;10178;48.034;9.800;2023-05-07T19:33:59;15.40;99.90
20035;DHT22;10178;48.034;9.800;2023-05-07T19:36:24;15.40;99.90
20035;DHT22;10178;48.034;9.800;2023-05-07T19:38:50;15.50;99.90
20035;DHT22;10178;48.034;9.800;2023-05-07T19:41:19;15.60;99.90
20035;DHT22;10178;48.034;9.800;2023-05-07T19:43:45;16.40;99.90
20035;DHT22;10178;48.034;9.800;2023-05-07T19:46:10;17.30;99.90
20035;DHT22;10178;48.034;9.800;2023-05-07T19:48:36;17.90;99.90
20035;DHT22;10178;48.034;9.800;2023-05-07T19:51:01;18.40;99.90
20035;DHT22;10178;48.034;9.800;2023-05-07T19:53:27;18.60;99.90
20035;DHT22;10178;48.034;9.800;2023-05-07T19:56:08;18.80;99.90
20035;DHT22;10178;48.034;9.800;2023-05-07T19:58:34;18.90;99.90
20035;DHT22;10178;48.034;9.800;2023-05-07T20:01:01;19.00;99.90
20035;DHT22;10178;48.034;9.800;2023-05-07T20:03:28;19.10;99.90
20035;DHT22;10178;48.034;9.800;2023-05-07T20:05:53;19.10;99.90
20035;DHT22;10178;48.034;9.800;2023-05-07T20:08:19;19.20;99.90
20035;DHT22;10178;48.034;9.800;2023-05-07T20:10:45;19.20;99.90
20035;DHT22;10178;48.034;9.800;2023-05-07T20:13:11;19.20;99.90
20035;DHT22;10178;48.034;9.800;2023-05-07T20:15:37;19.20;99.90
20035;DHT22;10178;48.034;9.800;2023-05-07T20:18:03;19.20;99.90
20035;DHT22;10178;48.034;9.800;2023-05-07T20:20:29;19.20;99.90
20035;DHT22;10178;48.034;9.800;2023-05-07T20:22:54;19.20;99.90
20035;DHT22;10178;48.034;9.800;2023-05-07T20:25:20;19.20;99.90
20035;DHT22;10178;48.034;9.800;2023-05-07T20:27:46;19.20;99.90
20035;DHT22;10178;48.034;9.800;2023-05-07T20:30:12;19.20;99.90
20035;DHT22;10178;48.034;9.800;2023-05-07T20:32:38;19.20;99.90
20035;DHT22;10178;48.034;9.800;2023-05-07T20:35:04;19.20;99.90
20035;DHT22;10178;48.034;9.800;2023-05-07T20:37:32;19.20;99.90
20035;DHT22;10178;48.034;9.800;2023-05-07T20:39:59;19.20;99.90
20035;DHT22;10178;48.034;9.800;2023-05-07T20:42:25;19.10;99.90
20035;DHT22;10178;48.034;9.800;2023-05-07T20:44:51;19.10;99.90
20035;DHT22;10178;48.034;9.800;2023-05-07T20:47:27;19.10;99.90
20035;DHT22;10178;48.034;9.800;2023-05-07T20:49:53;19.10;99.90
20035;DHT22;10178;48.034;9.800;2023-05-07T20:52:19;19.10;99.90
20035;DHT22;10178;48.034;9.800;2023-05-07T20:54:44;19.00;99.90
20035;DHT22;10178;48.034;9.800;2023-05-07T20:57:12;19.00;99.90
20035;DHT22;10178;48.034;9.800;2023-05-07T20:59:38;19.00;99.90
20035;DHT22;10178;48.034;9.800;2023-05-07T21:02:05;19.00;99.90
20035;DHT22;10178;48.034;9.800;2023-05-07T21:04:31;19.00;99.90
20035;DHT22;10178;48.034;9.800;2023-05-07T21:06:57;18.60;99.90
20035;DHT22;10178;48.034;9.800;2023-05-07T21:09:23;18.20;99.90
20035;DHT22;10178;48.034;9.800;2023-05-07T21:11:49;18.20;99.90
20035;DHT22;10178;48.034;9.800;2023-05-07T21:14:14;18.30;99.90
20035;DHT22;10178;48.034;9.800;2023-05-07T21:16:40;18.40;99.90
20035;DHT22;10178;48.034;9.800;2023-05-07T21:19:07;18.50;99.90
20035;DHT22;10178;48.034;9.800;2023-05-07T21:21:33;18.50;99.90
20035;DHT22;10178;48.034;9.800;2023-05-07T21:23:58;18.40;99.90
20035;DHT22;10178;48.034;9.800;2023-05-07T21:26:24;18.40;99.90
20035;DHT22;10178;48.034;9.800;2023-05-07T21:28:50;18.40;99.90
20035;DHT22;10178;48.034;9.800;2023-05-07T21:31:15;18.40;99.90
20035;DHT22;10178;48.034;9.800;2023-05-07T21:33:42;18.50;99.90
20035;DHT22;10178;48.034;9.800;2023-05-07T21:36:09;18.60;99.90
20035;DHT22;10178;48.034;9.800;2023-05-07T21:38:36;18.40;99.90
20035;DHT22;10178;48.034;9.800;2023-05-07T21:41:02;17.70;99.90
20035;DHT22;10178;48.034;9.800;2023-05-07T21:43:27;18.00;99.90
20035;DHT22;10178;48.034;9.800;2023-05-07T21:45:53;18.10;99.90
20035;DHT22;10178;48.034;9.800;2023-05-07T21:48:18;18.30;99.90
20035;DHT22;10178;48.034;9.800;2023-05-07T21:50:47;18.40;99.90
20035;DHT22;10178;48.034;9.800;2023-05-07T21:53:13;18.50;99.90
20035;DHT22;10178;48.034;9.800;2023-05-07T21:55:38;18.50;99.90
20035;DHT22;10178;48.034;9.800;2023-05-07T21:58:04;18.50;99.90
20035;DHT22;10178;48.034;9.800;2023-05-07T22:00:30;18.60;99.90
20035;DHT22;10178;48.034;9.800;2023-05-07T22:02:55;18.30;99.90
20035;DHT22;10178;48.034;9.800;2023-05-07T22:05:21;18.20;99.90
20035;DHT22;10178;48.034;9.800;2023-05-07T22:07:47;18.00;99.90
20035;DHT22;10178;48.034;9.800;2023-05-07T22:10:12;17.90;99.90
20035;DHT22;10178;48.034;9.800;2023-05-07T22:12:38;18.00;99.90
20035;DHT22;10178;48.034;9.800;2023-05-07T22:15:04;18.10;99.90
20035;DHT22;10178;48.034;9.800;2023-05-07T22:17:30;18.30;99.90
20035;DHT22;10178;48.034;9.800;2023-05-07T22:19:55;18.20;99.90
20035;DHT22;10178;48.034;9.800;2023-05-07T22:22:21;17.70;99.90
20035;DHT22;10178;48.034;9.800;2023-05-07T22:24:47;17.80;99.90
20035;DHT22;10178;48.034;9.800;2023-05-07T22:27:12;18.00;99.90
20035;DHT22;10178;48.034;9.800;2023-05-07T22:29:38;18.20;99.90
20035;DHT22;10178;48.034;9.800;2023-05-07T22:32:04;18.10;99.90
20035;DHT22;10178;48.034;9.800;2023-05-07T22:34:29;18.20;99.90
20035;DHT22;10178;48.034;9.800;2023-05-07T22:36:55;18.20;99.90
20035;DHT22;10178;48.034;9.800;2023-05-07T22:39:21;17.90;99.90
20035;DHT22;10178;48.034;9.800;2023-05-07T22:41:46;17.10;99.90
20035;DHT22;10178;48.034;9.800;2023-05-07T22:44:12;16.80;99.90
20035;DHT22;10178;48.034;9.800;2023-05-07T22:46:38;16.00;99.90
20035;DHT22;10178;48.034;9.800;2023-05-07T22:49:04;15.40;99.90
20035;DHT22;10178;48.034;9.800;2023-05-07T22:51:29;15.40;99.90
20035;DHT22;10178;48.034;9.800;2023-05-07T22:53:55;15.60;99.90
20035;DHT22;10178;48.034;9.800;2023-05-07T22:56:20;16.10;99.90
20035;DHT22;10178;48.034;9.800;2023-05-07T22:58:48;16.00;99.90
20035;DHT22;10178;48.034;9.800;2023-05-07T23:01:16;16.10;99.90
20035;DHT22;10178;48.034;9.800;2023-05-07T23:03:42;16.60;99.90
20035;DHT22;10178;48.034;9.800;2023-05-07T23:06:08;17.00;99.90
20035;DHT22;10178;48.034;9.800;2023-05-07T23:08:34;16.90;99.90
20035;DHT22;10178;48.034;9.800;2023-05-07T23:11:00;16.90;99.90
20035;DHT22;10178;48.034;9.800;2023-05-07T23:13:25;16.60;99.90
20035;DHT22;10178;48.034;9.800;2023-05-07T23:15:52;16.90;99.90
20035;DHT22;10178;48.034;9.800;2023-05-07T23:18:17;17.20;99.90
20035;DHT22;10178;48.034;9.800;2023-05-07T23:20:43;17.20;99.90
20035;DHT22;10178;48.034;9.800;2023-05-07T23:23:09;17.20;99.90
20035;DHT22;10178;48.034;9.800;2023-05-07T23:25:35;17.40;99.90
20035;DHT22;10178;48.034;9.800;2023-05-07T23:28:01;17.50;99.90
20035;DHT22;10178;48.034;9.800;2023-05-07T23:30:26;17.60;99.90
20035;DHT22;10178;48.034;9.800;2023-05-07T23:32:52;17.70;99.90
20035;DHT22;10178;48.034;9.800;2023-05-07T23:35:18;17.70;99.90
20035;DHT22;10178;48.034;9.800;2023-05-07T23:37:43;17.80;99.90